Time;durP1;ratioP1;P1;durP2;ratioP2;P2;SDS_P1;SDS_P2;PMS_P1;PMS_P2;Temp;Humidity;BMP_temperature;BMP_pressure;BME280_temperature;BME280_humidity;BME280_pressure;Samples;Min_cycle;Max_cycle;Signal;HPM_P1;HPM_P2
2023/09/25 00:01:33;;;;;;;19.27;3.20;;;;;;;;;;6309199;22;20114;-54
2023/09/25 00:04:00;;;;;;;19.58;3.38;;;;;;;;;;6337886;22;20009;-51
2023/09/25 00:06:28;;;;;;;15.65;3.17;;;;;;;;;;6337152;22;20354;-53
2023/09/25 00:08:55;;;;;;;15.00;3.25;;;;;;;;;;6336945;22;20006;-53
2023/09/25 00:11:22;;;;;;;26.85;3.80;;;;;;;;;;6337204;22;20007;-53
2023/09/25 00:13:49;;;;;;;26.15;3.33;;;;;;;;;;6336699;22;20436;-53
2023/09/25 00:16:16;;;;;;;53.47;5.28;;;;;;;;;;6337058;22;20014;-57
2023/09/25 00:18:43;;;;;;;26.17;3.42;;;;;;;;;;6338073;22;20010;-55
2023/09/25 00:21:10;;;;;;;30.85;4.13;;;;;;;;;;6337062;22;20081;-53
2023/09/25 00:23:38;;;;;;;30.20;3.65;;;;;;;;;;6337521;22;20010;-56
2023/09/25 00:26:06;;;;;;;20.17;3.28;;;;;;;;;;6337763;22;20041;-50
2023/09/25 00:28:34;;;;;;;26.42;3.58;;;;;;;;;;6337548;22;20087;-57
2023/09/25 00:31:01;;;;;;;28.23;3.35;;;;;;;;;;6337678;22;20010;-58
2023/09/25 00:33:28;;;;;;;29.33;3.45;;;;;;;;;;6337049;22;20088;-56
2023/09/25 00:35:55;;;;;;;16.85;3.40;;;;;;;;;;6310007;22;20033;-56
2023/09/25 00:38:22;;;;;;;25.13;3.72;;;;;;;;;;6309928;22;20010;-54
2023/09/25 00:40:48;;;;;;;34.30;4.20;;;;;;;;;;6337299;22;20010;-56
2023/09/25 00:43:15;;;;;;;47.05;4.80;;;;;;;;;;6309662;22;20018;-55
2023/09/25 00:45:43;;;;;;;37.75;3.90;;;;;;;;;;6337834;22;20017;-54
2023/09/25 00:48:16;;;;;;;6.07;2.50;;;;;;;;;;6336988;22;20021;-58
2023/09/25 00:50:43;;;;;;;27.42;3.45;;;;;;;;;;6339401;22;20015;-55
2023/09/25 00:53:09;;;;;;;27.77;3.90;;;;;;;;;;6339114;22;20007;-55
2023/09/25 00:55:37;;;;;;;19.30;3.13;;;;;;;;;;6339452;22;20018;-54
2023/09/25 00:58:05;;;;;;;24.55;3.40;;;;;;;;;;6339951;22;20019;-54
2023/09/25 01:00:34;;;;;;;24.27;3.53;;;;;;;;;;6312005;22;20072;-54
2023/09/25 01:03:02;;;;;;;18.38;3.67;;;;;;;;;;6311427;22;20019;-55
2023/09/25 01:05:29;;;;;;;41.42;5.03;;;;;;;;;;6339097;22;20019;-55
2023/09/25 01:07:55;;;;;;;37.45;4.03;;;;;;;;;;6311481;22;20010;-55
2023/09/25 01:10:22;;;;;;;61.33;5.15;;;;;;;;;;6310619;22;20042;-54
2023/09/25 01:12:52;;;;;;;31.35;4.07;;;;;;;;;;6311251;22;20416;-54
2023/09/25 01:15:19;;;;;;;16.77;2.75;;;;;;;;;;6339223;22;20065;-54
2023/09/25 01:17:46;;;;;;;28.55;3.53;;;;;;;;;;6339097;22;20014;-56
2023/09/25 01:20:15;;;;;;;26.83;3.42;;;;;;;;;;6339269;22;20015;-55
2023/09/25 01:22:42;;;;;;;27.00;3.97;;;;;;;;;;6285918;22;20018;-56
2023/09/25 01:25:12;;;;;;;40.22;4.40;;;;;;;;;;6339188;22;20086;-57
2023/09/25 01:27:44;;;;;;;23.60;3.33;;;;;;;;;;6339464;22;20010;-53
2023/09/25 01:30:13;;;;;;;29.70;4.33;;;;;;;;;;6338979;22;20011;-54
2023/09/25 01:32:42;;;;;;;23.95;3.78;;;;;;;;;;6338618;22;20219;-54
2023/09/25 01:35:13;;;;;;;22.38;3.25;;;;;;;;;;6338817;22;20086;-56
2023/09/25 01:37:40;;;;;;;25.20;3.70;;;;;;;;;;6338447;22;20007;-54
2023/09/25 01:40:12;;;;;;;19.50;3.22;;;;;;;;;;6339585;22;20014;-57
2023/09/25 01:42:39;;;;;;;27.08;3.97;;;;;;;;;;6311448;22;20019;-55
2023/09/25 01:45:08;;;;;;;23.83;3.58;;;;;;;;;;6338715;22;20090;-55
2023/09/25 01:47:35;;;;;;;40.53;5.10;;;;;;;;;;6338980;22;20038;-54
2023/09/25 01:50:03;;;;;;;18.40;2.95;;;;;;;;;;6311384;22;20302;-52
2023/09/25 01:52:30;;;;;;;35.80;4.13;;;;;;;;;;6338582;22;20090;-52
2023/09/25 01:54:57;;;;;;;29.05;3.90;;;;;;;;;;6311552;22;20444;-53
2023/09/25 01:57:24;;;;;;;28.13;3.63;;;;;;;;;;6311020;22;20305;-54
2023/09/25 01:59:51;;;;;;;24.17;3.63;;;;;;;;;;6338664;22;20068;-54
2023/09/25 02:02:17;;;;;;;35.90;4.45;;;;;;;;;;6245382;22;20131;-57
2023/09/25 02:04:45;;;;;;;22.83;3.25;;;;;;;;;;6275884;22;20050;-54
2023/09/25 02:07:12;;;;;;;54.85;5.30;;;;;;;;;;6274814;22;20016;-52
2023/09/25 02:09:39;;;;;;;45.10;4.70;;;;;;;;;;6247885;22;20023;-56
2023/09/25 02:12:06;;;;;;;42.45;4.45;;;;;;;;;;6274161;22;20016;-56
2023/09/25 02:14:33;;;;;;;26.10;4.05;;;;;;;;;;6273722;22;20437;-54
2023/09/25 02:17:01;;;;;;;36.30;4.57;;;;;;;;;;6247532;22;20099;-54
2023/09/25 02:19:31;;;;;;;37.40;4.63;;;;;;;;;;6248556;22;20788;-55
2023/09/25 02:21:58;;;;;;;28.80;4.00;;;;;;;;;;6248003;22;20016;-55
2023/09/25 02:24:25;;;;;;;37.38;4.93;;;;;;;;;;6273883;22;20061;-56
2023/09/25 02:26:52;;;;;;;20.33;3.67;;;;;;;;;;6248386;22;20512;-55
2023/09/25 02:29:22;;;;;;;21.38;3.78;;;;;;;;;;6248009;22;20030;-54
2023/09/25 02:31:49;;;;;;;34.60;4.50;;;;;;;;;;6275613;22;20437;-54
2023/09/25 02:34:18;;;;;;;50.50;5.45;;;;;;;;;;6248667;22;20062;-53
2023/09/25 02:36:45;;;;;;;16.73;4.10;;;;;;;;;;6275739;22;20103;-55
2023/09/25 02:39:16;;;;;;;44.20;5.05;;;;;;;;;;6247887;22;20020;-54
2023/09/25 02:41:43;;;;;;;24.73;3.75;;;;;;;;;;6275617;22;20503;-55
2023/09/25 02:44:10;;;;;;;23.73;3.83;;;;;;;;;;6248163;22;20315;-57
2023/09/25 02:46:37;;;;;;;32.55;4.90;;;;;;;;;;6275806;22;20200;-55
2023/09/25 02:49:04;;;;;;;19.35;3.60;;;;;;;;;;6275447;22;20016;-53
2023/09/25 02:51:31;;;;;;;23.27;3.78;;;;;;;;;;6248226;22;20018;-55
2023/09/25 02:53:58;;;;;;;33.72;4.53;;;;;;;;;;6274639;22;20405;-57
2023/09/25 02:56:26;;;;;;;25.67;4.00;;;;;;;;;;6275605;22;20020;-55
2023/09/25 02:58:53;;;;;;;37.08;4.95;;;;;;;;;;6248059;22;20492;-54
2023/09/25 03:01:20;;;;;;;58.97;5.72;;;;;;;;;;6242573;22;20027;-55
2023/09/25 03:03:47;;;;;;;23.00;4.18;;;;;;;;;;6244982;23;20621;-57
2023/09/25 03:06:14;;;;;;;23.20;3.38;;;;;;;;;;6244417;23;20016;-56
2023/09/25 03:08:41;;;;;;;35.35;4.20;;;;;;;;;;6244170;23;20020;-56
2023/09/25 03:11:09;;;;;;;16.63;3.28;;;;;;;;;;6244392;23;20075;-57
2023/09/25 03:13:36;;;;;;;35.47;4.82;;;;;;;;;;6243938;23;20012;-57
2023/09/25 03:16:11;;;;;;;34.25;4.57;;;;;;;;;;6212742;23;20031;-52
2023/09/25 03:18:38;;;;;;;21.33;3.50;;;;;;;;;;6239450;23;20024;-54
2023/09/25 03:21:12;;;;;;;21.70;3.95;;;;;;;;;;6244419;23;20012;-56
2023/09/25 03:23:40;;;;;;;26.90;4.10;;;;;;;;;;6244169;23;20450;-53
2023/09/25 03:26:14;;;;;;;25.30;4.07;;;;;;;;;;6243880;23;20043;-57
2023/09/25 03:28:42;;;;;;;47.17;5.63;;;;;;;;;;6217147;23;20027;-55
2023/09/25 03:31:09;;;;;;;17.73;3.55;;;;;;;;;;6243866;23;20022;-56
2023/09/25 03:33:37;;;;;;;20.42;3.53;;;;;;;;;;6217765;23;20413;-55
2023/09/25 03:36:05;;;;;;;34.42;4.28;;;;;;;;;;6217072;23;20027;-53
2023/09/25 03:38:32;;;;;;;34.97;4.88;;;;;;;;;;6216718;23;20022;-51
2023/09/25 03:40:59;;;;;;;19.63;3.95;;;;;;;;;;6217419;23;20525;-55
2023/09/25 03:43:26;;;;;;;53.38;5.35;;;;;;;;;;6243732;23;20020;-56
2023/09/25 03:45:54;;;;;;;28.73;4.53;;;;;;;;;;6244605;23;20019;-55
2023/09/25 03:48:21;;;;;;;29.67;5.00;;;;;;;;;;6243771;23;20027;-54
2023/09/25 03:50:49;;;;;;;30.10;4.22;;;;;;;;;;6243297;23;20020;-55
2023/09/25 03:53:17;;;;;;;37.35;4.57;;;;;;;;;;6216281;23;20502;-51
2023/09/25 03:55:44;;;;;;;19.40;3.63;;;;;;;;;;6217054;23;20050;-55
2023/09/25 03:58:11;;;;;;;35.35;4.80;;;;;;;;;;6217169;23;20027;-57
2023/09/25 04:00:39;;;;;;;31.02;4.47;;;;;;;;;;6244149;23;20020;-55
2023/09/25 04:03:06;;;;;;;37.05;5.03;;;;;;;;;;6243447;22;20095;-55
2023/09/25 04:05:34;;;;;;;31.63;4.50;;;;;;;;;;6243331;23;20012;-55
2023/09/25 04:08:01;;;;;;;15.98;3.38;;;;;;;;;;6243869;23;20016;-54
2023/09/25 04:10:28;;;;;;;32.85;4.72;;;;;;;;;;6244487;23;20024;-57
2023/09/25 04:12:55;;;;;;;28.08;4.72;;;;;;;;;;6244991;23;20015;-57
2023/09/25 04:15:23;;;;;;;22.80;4.18;;;;;;;;;;6244152;23;20034;-54
2023/09/25 04:17:52;;;;;;;15.52;3.90;;;;;;;;;;6244256;23;20073;-55
2023/09/25 04:20:24;;;;;;;27.08;4.40;;;;;;;;;;6217639;23;20070;-57
2023/09/25 04:22:52;;;;;;;23.63;4.43;;;;;;;;;;6243826;23;20338;-53
2023/09/25 04:25:19;;;;;;;57.30;6.10;;;;;;;;;;6244058;23;20482;-54
2023/09/25 04:27:47;;;;;;;19.23;4.90;;;;;;;;;;6244258;23;20023;-57
2023/09/25 04:30:15;;;;;;;15.07;3.88;;;;;;;;;;6243697;23;20449;-55
2023/09/25 04:32:43;;;;;;;25.95;4.60;;;;;;;;;;6243640;23;20087;-53
2023/09/25 04:35:12;;;;;;;37.05;4.70;;;;;;;;;;6243479;23;20012;-54
2023/09/25 04:37:39;;;;;;;24.40;4.78;;;;;;;;;;6243383;23;20020;-56
2023/09/25 04:40:14;;;;;;;26.85;4.25;;;;;;;;;;6244049;23;20020;-56
2023/09/25 04:42:42;;;;;;;17.63;3.60;;;;;;;;;;6244225;23;20039;-55
2023/09/25 04:45:13;;;;;;;28.45;5.30;;;;;;;;;;6217219;23;20040;-53
2023/09/25 04:47:41;;;;;;;19.92;5.05;;;;;;;;;;6244382;23;20048;-57
2023/09/25 04:50:08;;;;;;;19.23;4.53;;;;;;;;;;6244124;23;20016;-58
2023/09/25 04:52:36;;;;;;;31.02;5.32;;;;;;;;;;6244089;23;20016;-53
2023/09/25 04:55:03;;;;;;;20.52;4.25;;;;;;;;;;6244351;23;20518;-56
2023/09/25 04:57:30;;;;;;;33.08;5.72;;;;;;;;;;6243879;23;20024;-60
2023/09/25 04:59:57;;;;;;;14.60;3.88;;;;;;;;;;6244045;23;20450;-54
2023/09/25 05:02:24;;;;;;;18.58;3.95;;;;;;;;;;6244208;22;20104;-54
2023/09/25 05:04:51;;;;;;;20.23;4.18;;;;;;;;;;6244259;23;20028;-55
2023/09/25 05:07:19;;;;;;;54.65;5.80;;;;;;;;;;6244185;23;20456;-56
2023/09/25 05:09:46;;;;;;;26.27;4.18;;;;;;;;;;6244219;23;20070;-57
2023/09/25 05:12:13;;;;;;;19.90;3.65;;;;;;;;;;6243599;23;20358;-54
2023/09/25 05:14:39;;;;;;;21.10;3.67;;;;;;;;;;6243831;23;20095;-55
2023/09/25 05:17:06;;;;;;;24.83;4.32;;;;;;;;;;6244199;23;20026;-57
2023/09/25 05:19:33;;;;;;;28.63;3.92;;;;;;;;;;6244268;23;20078;-49
2023/09/25 05:22:00;;;;;;;11.75;3.35;;;;;;;;;;6244944;23;20012;-51
2023/09/25 05:24:27;;;;;;;17.80;3.70;;;;;;;;;;6243837;23;20016;-55
2023/09/25 05:26:54;;;;;;;33.30;4.68;;;;;;;;;;6244283;23;20461;-53
2023/09/25 05:29:21;;;;;;;37.03;4.82;;;;;;;;;;6243299;23;20020;-51
2023/09/25 05:31:48;;;;;;;36.38;5.15;;;;;;;;;;6243591;23;20458;-55
2023/09/25 05:34:15;;;;;;;49.53;5.80;;;;;;;;;;6244136;23;20044;-55
2023/09/25 05:36:45;;;;;;;31.23;4.35;;;;;;;;;;6246273;23;20051;-55
2023/09/25 05:39:12;;;;;;;33.90;4.65;;;;;;;;;;6219165;23;20346;-61
2023/09/25 05:41:39;;;;;;;65.57;6.68;;;;;;;;;;6218899;23;20024;-54
2023/09/25 05:44:06;;;;;;;24.23;4.45;;;;;;;;;;6218740;23;20016;-56
2023/09/25 05:46:33;;;;;;;41.70;5.15;;;;;;;;;;6245987;23;20505;-57
2023/09/25 05:49:00;;;;;;;31.92;4.53;;;;;;;;;;6246727;23;20087;-56
2023/09/25 05:51:27;;;;;;;15.75;2.92;;;;;;;;;;6219193;23;20018;-55
2023/09/25 05:53:54;;;;;;;22.35;3.70;;;;;;;;;;6245363;23;20435;-58
2023/09/25 05:56:22;;;;;;;16.60;3.67;;;;;;;;;;6245518;23;20477;-52
2023/09/25 05:58:50;;;;;;;32.50;4.50;;;;;;;;;;6245166;23;20027;-60
2023/09/25 06:01:17;;;;;;;72.57;6.57;;;;;;;;;;6245468;22;20430;-61
2023/09/25 06:03:45;;;;;;;24.73;3.83;;;;;;;;;;6246110;23;20035;-56
2023/09/25 06:06:12;;;;;;;22.55;3.55;;;;;;;;;;6245341;23;20023;-55
2023/09/25 06:08:39;;;;;;;35.63;3.85;;;;;;;;;;6245105;23;20017;-56
2023/09/25 06:11:05;;;;;;;28.10;4.03;;;;;;;;;;6245402;23;20026;-55
2023/09/25 06:13:35;;;;;;;34.80;4.63;;;;;;;;;;6218426;23;20111;-57
2023/09/25 06:16:02;;;;;;;24.23;3.60;;;;;;;;;;6246089;23;20015;-56
2023/09/25 06:18:29;;;;;;;26.63;3.95;;;;;;;;;;6245335;23;20075;-56
2023/09/25 06:20:56;;;;;;;9.68;2.63;;;;;;;;;;6245044;23;20020;-56
2023/09/25 06:23:24;;;;;;;30.48;3.63;;;;;;;;;;6245031;23;20035;-54
2023/09/25 06:25:51;;;;;;;26.45;3.25;;;;;;;;;;6244984;23;20044;-60
2023/09/25 06:28:20;;;;;;;46.70;4.63;;;;;;;;;;6244520;23;20020;-59
2023/09/25 06:30:47;;;;;;;20.85;2.65;;;;;;;;;;6245269;23;20027;-56
2023/09/25 06:33:15;;;;;;;25.88;3.67;;;;;;;;;;6245129;23;20016;-56
2023/09/25 06:35:42;;;;;;;28.85;3.22;;;;;;;;;;6244526;23;20082;-55
2023/09/25 06:38:09;;;;;;;21.27;2.88;;;;;;;;;;6244889;23;20102;-56
2023/09/25 06:40:42;;;;;;;25.27;3.17;;;;;;;;;;6244090;23;20016;-58
2023/09/25 06:43:09;;;;;;;36.00;3.50;;;;;;;;;;6218555;23;20024;-57
2023/09/25 06:45:37;;;;;;;13.63;2.67;;;;;;;;;;6245043;23;20052;-58
2023/09/25 06:48:04;;;;;;;27.48;2.90;;;;;;;;;;6244557;23;20039;-56
2023/09/25 06:50:31;;;;;;;26.48;2.92;;;;;;;;;;6244603;23;20012;-57
2023/09/25 06:52:58;;;;;;;27.13;3.20;;;;;;;;;;6244998;23;20020;-57
2023/09/25 06:55:25;;;;;;;51.08;4.35;;;;;;;;;;6244710;23;20020;-58
2023/09/25 06:57:53;;;;;;;30.45;2.95;;;;;;;;;;6244496;23;20031;-54
2023/09/25 07:00:20;;;;;;;33.20;3.38;;;;;;;;;;6244165;23;20016;-56
2023/09/25 07:02:48;;;;;;;26.75;2.85;;;;;;;;;;6244504;22;20016;-55
2023/09/25 07:05:15;;;;;;;44.72;4.10;;;;;;;;;;6244240;23;20019;-56
2023/09/25 07:07:42;;;;;;;36.90;3.63;;;;;;;;;;6244590;23;20027;-58
2023/09/25 07:10:10;;;;;;;17.40;1.83;;;;;;;;;;6218883;23;20175;-57
2023/09/25 07:12:37;;;;;;;51.17;4.85;;;;;;;;;;6243805;23;20027;-58
2023/09/25 07:15:05;;;;;;;18.95;2.40;;;;;;;;;;6192624;23;20370;-54
2023/09/25 07:17:32;;;;;;;33.17;3.33;;;;;;;;;;6244343;23;20087;-54
2023/09/25 07:19:59;;;;;;;32.28;3.25;;;;;;;;;;6244045;23;20070;-55
2023/09/25 07:22:27;;;;;;;54.35;4.78;;;;;;;;;;6243983;23;20101;-55
2023/09/25 07:24:55;;;;;;;18.52;2.40;;;;;;;;;;6244258;23;20429;-56
2023/09/25 07:27:22;;;;;;;38.28;3.20;;;;;;;;;;6243673;23;20016;-55
2023/09/25 07:29:49;;;;;;;24.15;2.58;;;;;;;;;;6244064;23;20008;-54
2023/09/25 07:32:16;;;;;;;24.33;2.75;;;;;;;;;;6244051;23;20016;-55
2023/09/25 07:34:43;;;;;;;42.85;4.65;;;;;;;;;;6243851;23;20016;-57
2023/09/25 07:37:12;;;;;;;29.52;2.72;;;;;;;;;;6244579;23;20099;-58
2023/09/25 07:39:40;;;;;;;19.77;2.40;;;;;;;;;;6244359;23;20020;-58
2023/09/25 07:42:07;;;;;;;28.75;2.65;;;;;;;;;;6243846;23;20069;-56
2023/09/25 07:44:35;;;;;;;32.97;2.58;;;;;;;;;;6243753;23;20043;-56
2023/09/25 07:47:06;;;;;;;32.88;3.25;;;;;;;;;;6243995;23;20087;-55
2023/09/25 07:49:40;;;;;;;35.42;3.15;;;;;;;;;;6244218;23;20016;-56
2023/09/25 07:52:18;;;;;;;21.58;2.28;;;;;;;;;;6244352;23;20020;-55
2023/09/25 07:54:48;;;;;;;38.78;3.33;;;;;;;;;;6244209;23;20020;-55
2023/09/25 07:57:21;;;;;;;25.85;2.58;;;;;;;;;;6216744;23;20020;-55
2023/09/25 07:59:49;;;;;;;17.15;1.98;;;;;;;;;;6243693;23;20492;-56
2023/09/25 08:02:18;;;;;;;39.65;3.95;;;;;;;;;;6243820;22;20016;-58
2023/09/25 08:04:45;;;;;;;18.67;2.40;;;;;;;;;;6244031;23;20349;-55
2023/09/25 08:07:13;;;;;;;30.80;2.72;;;;;;;;;;6243426;23;20020;-57
2023/09/25 08:09:40;;;;;;;16.20;1.88;;;;;;;;;;6244208;23;20091;-53
2023/09/25 08:12:07;;;;;;;28.80;3.03;;;;;;;;;;6243337;23;20027;-57
2023/09/25 08:14:35;;;;;;;31.88;2.88;;;;;;;;;;6243391;23;20062;-54
2023/09/25 08:17:02;;;;;;;39.58;3.58;;;;;;;;;;6243336;23;20426;-54
2023/09/25 08:19:29;;;;;;;47.53;3.72;;;;;;;;;;6216493;23;20043;-56
2023/09/25 08:21:56;;;;;;;23.58;2.35;;;;;;;;;;6243734;23;20350;-57
2023/09/25 08:24:23;;;;;;;28.83;3.38;;;;;;;;;;6242508;23;20016;-59
2023/09/25 08:26:50;;;;;;;27.60;2.67;;;;;;;;;;6216847;23;20095;-56
2023/09/25 08:29:17;;;;;;;37.72;4.15;;;;;;;;;;6243245;23;20439;-56
2023/09/25 08:31:44;;;;;;;33.75;2.83;;;;;;;;;;6243350;23;20020;-57
2023/09/25 08:34:11;;;;;;;22.77;2.03;;;;;;;;;;6243930;23;20446;-56
2023/09/25 08:36:38;;;;;;;27.55;2.22;;;;;;;;;;6243503;23;20107;-57
2023/09/25 08:39:08;;;;;;;26.08;2.22;;;;;;;;;;6242896;23;20012;-55
2023/09/25 08:41:36;;;;;;;31.58;2.70;;;;;;;;;;6242939;23;20074;-58
2023/09/25 08:44:04;;;;;;;63.05;4.25;;;;;;;;;;6215857;23;20043;-57
2023/09/25 08:46:31;;;;;;;82.47;5.47;;;;;;;;;;6243659;23;20021;-55
2023/09/25 08:49:01;;;;;;;32.92;3.08;;;;;;;;;;6243433;23;20090;-55
2023/09/25 08:51:34;;;;;;;26.88;2.70;;;;;;;;;;6242677;23;20021;-55
2023/09/25 08:54:04;;;;;;;30.52;3.75;;;;;;;;;;6216302;23;20450;-57
2023/09/25 08:56:32;;;;;;;35.40;4.68;;;;;;;;;;6242933;23;20050;-56
2023/09/25 08:58:59;;;;;;;31.25;3.20;;;;;;;;;;6243273;23;20034;-58
2023/09/25 09:01:28;;;;;;;54.50;4.35;;;;;;;;;;6243219;22;20012;-57
2023/09/25 09:03:55;;;;;;;26.42;2.88;;;;;;;;;;6243964;23;20126;-56
2023/09/25 09:06:22;;;;;;;29.88;2.60;;;;;;;;;;6243134;23;20087;-54
2023/09/25 09:08:50;;;;;;;45.35;4.65;;;;;;;;;;6243604;23;20012;-57
2023/09/25 09:11:19;;;;;;;34.78;2.72;;;;;;;;;;6217963;23;20028;-54
2023/09/25 09:13:47;;;;;;;29.65;2.70;;;;;;;;;;6245160;23;20393;-57
2023/09/25 09:16:15;;;;;;;36.28;3.22;;;;;;;;;;6245223;23;20022;-58
2023/09/25 09:18:42;;;;;;;32.03;2.80;;;;;;;;;;6245884;23;20047;-56
2023/09/25 09:21:26;;;;;;;29.52;2.75;;;;;;;;;;6218825;23;20017;-53
2023/09/25 09:23:57;;;;;;;27.92;2.55;;;;;;;;;;6218350;23;20050;-57
2023/09/25 09:26:25;;;;;;;31.50;3.05;;;;;;;;;;6244924;23;20016;-57
2023/09/25 09:28:54;;;;;;;22.83;2.13;;;;;;;;;;6245078;23;20021;-54
2023/09/25 09:31:21;;;;;;;45.13;3.40;;;;;;;;;;6218440;23;20097;-58
2023/09/25 09:33:48;;;;;;;27.67;2.38;;;;;;;;;;6245333;23;20653;-57
2023/09/25 09:36:19;;;;;;;39.63;3.17;;;;;;;;;;6245448;23;20012;-57
2023/09/25 09:38:47;;;;;;;29.52;2.42;;;;;;;;;;6245325;23;20039;-57
2023/09/25 09:41:15;;;;;;;22.63;2.05;;;;;;;;;;6218350;23;20027;-56
2023/09/25 09:43:42;;;;;;;32.60;2.72;;;;;;;;;;6244772;23;20023;-56
2023/09/25 09:46:11;;;;;;;38.30;3.03;;;;;;;;;;6217999;23;20046;-57
2023/09/25 09:48:39;;;;;;;67.97;6.00;;;;;;;;;;6244647;23;20027;-56
2023/09/25 09:51:09;;;;;;;22.50;2.38;;;;;;;;;;6244756;23;20012;-58
2023/09/25 09:53:36;;;;;;;79.60;5.90;;;;;;;;;;6217698;23;20346;-56
2023/09/25 09:56:04;;;;;;;16.02;1.90;;;;;;;;;;6244647;23;20091;-54
2023/09/25 09:58:32;;;;;;;33.85;2.95;;;;;;;;;;6217565;23;20020;-55
2023/09/25 10:01:00;;;;;;;31.42;2.67;;;;;;;;;;6245520;23;20023;-57
2023/09/25 10:03:29;;;;;;;12.07;1.50;;;;;;;;;;6275777;22;20016;-57
2023/09/25 10:05:56;;;;;;;24.23;2.60;;;;;;;;;;6275417;22;20030;-57
2023/09/25 10:08:23;;;;;;;36.85;8.88;;;;;;;;;;6275572;22;20045;-57
2023/09/25 10:10:51;;;;;;;40.25;3.90;;;;;;;;;;6275376;22;20011;-57
2023/09/25 10:13:22;;;;;;;124.97;9.73;;;;;;;;;;6275193;22;20389;-59
2023/09/25 10:15:52;;;;;;;50.35;4.20;;;;;;;;;;6275802;22;20016;-58
2023/09/25 10:18:20;;;;;;;20.48;2.35;;;;;;;;;;6275522;22;20437;-55
2023/09/25 10:20:48;;;;;;;30.17;2.80;;;;;;;;;;6275551;22;20039;-58
2023/09/25 10:23:20;;;;;;;29.45;2.50;;;;;;;;;;6248059;22;20099;-57
2023/09/25 10:25:48;;;;;;;22.80;2.28;;;;;;;;;;6274963;22;20016;-58
2023/09/25 10:28:16;;;;;;;48.92;4.00;;;;;;;;;;6247070;22;20463;-58
2023/09/25 10:30:44;;;;;;;38.15;3.15;;;;;;;;;;6275207;22;20434;-57
2023/09/25 10:33:11;;;;;;;37.58;3.13;;;;;;;;;;6274978;22;20012;-57
2023/09/25 10:35:42;;;;;;;27.67;2.60;;;;;;;;;;6274918;22;20091;-57
2023/09/25 10:38:09;;;;;;;25.58;2.20;;;;;;;;;;6275462;22;20050;-57
2023/09/25 10:40:58;;;;;;;34.45;3.33;;;;;;;;;;6274755;22;20012;-57
2023/09/25 10:43:25;;;;;;;51.10;3.88;;;;;;;;;;6275042;22;20058;-57
2023/09/25 10:45:56;;;;;;;19.13;2.03;;;;;;;;;;6275911;22;20023;-57
2023/09/25 10:48:25;;;;;;;38.40;3.17;;;;;;;;;;6274951;22;20020;-57
2023/09/25 10:50:52;;;;;;;18.80;1.73;;;;;;;;;;6275264;22;20631;-57
2023/09/25 10:53:21;;;;;;;28.85;2.65;;;;;;;;;;6275282;22;20020;-58
2023/09/25 10:55:49;;;;;;;43.53;3.58;;;;;;;;;;6275099;22;20007;-58
2023/09/25 10:58:17;;;;;;;49.53;3.88;;;;;;;;;;6274623;22;20012;-59
2023/09/25 11:00:46;;;;;;;45.47;3.38;;;;;;;;;;6275053;22;20015;-58
2023/09/25 11:03:14;;;;;;;32.00;2.88;;;;;;;;;;6246844;22;20020;-57
2023/09/25 11:05:41;;;;;;;20.15;1.95;;;;;;;;;;6244722;23;20012;-57
2023/09/25 11:08:15;;;;;;;29.23;2.92;;;;;;;;;;6244940;23;20048;-57
2023/09/25 11:10:43;;;;;;;23.75;2.17;;;;;;;;;;6244500;23;20012;-58
2023/09/25 11:13:11;;;;;;;19.48;2.47;;;;;;;;;;6244439;23;20013;-57
2023/09/25 11:15:39;;;;;;;37.00;3.70;;;;;;;;;;6243988;23;20094;-57
2023/09/25 11:18:07;;;;;;;23.40;2.33;;;;;;;;;;6244523;23;20059;-57
2023/09/25 11:20:37;;;;;;;28.42;3.00;;;;;;;;;;6244290;23;20016;-57
2023/09/25 11:23:05;;;;;;;37.47;3.20;;;;;;;;;;6244157;23;20022;-61
2023/09/25 11:25:47;;;;;;;23.45;2.03;;;;;;;;;;6244458;23;20019;-59
2023/09/25 11:28:16;;;;;;;38.97;3.25;;;;;;;;;;6218320;23;20027;-59
2023/09/25 11:30:48;;;;;;;19.08;2.38;;;;;;;;;;6244486;23;20027;-58
2023/09/25 11:33:19;;;;;;;34.85;3.20;;;;;;;;;;6243958;23;20023;-59
2023/09/25 11:35:49;;;;;;;38.92;3.33;;;;;;;;;;6243363;23;20012;-58
2023/09/25 11:38:23;;;;;;;16.55;2.00;;;;;;;;;;6244267;23;20039;-59
2023/09/25 11:40:52;;;;;;;36.55;3.05;;;;;;;;;;6217321;23;20020;-58
2023/09/25 11:43:20;;;;;;;43.35;3.28;;;;;;;;;;6243845;23;20016;-59
2023/09/25 11:45:48;;;;;;;23.13;2.25;;;;;;;;;;6244122;23;20472;-58
2023/09/25 11:48:18;;;;;;;40.30;3.30;;;;;;;;;;6244196;23;20016;-58
2023/09/25 11:50:46;;;;;;;43.17;3.17;;;;;;;;;;6243795;23;20478;-62
2023/09/25 11:53:13;;;;;;;21.95;2.33;;;;;;;;;;6243971;23;20016;-58
2023/09/25 11:55:40;;;;;;;30.85;2.78;;;;;;;;;;6244212;23;20009;-58
2023/09/25 11:58:10;;;;;;;20.75;1.98;;;;;;;;;;6244656;23;20015;-58
2023/09/25 12:00:37;;;;;;;20.35;2.03;;;;;;;;;;6243951;23;20016;-59
2023/09/25 12:03:07;;;;;;;16.77;1.80;;;;;;;;;;6243224;23;20052;-58
2023/09/25 12:05:35;;;;;;;28.75;2.72;;;;;;;;;;6217377;23;20066;-58
2023/09/25 12:08:06;;;;;;;54.28;4.03;;;;;;;;;;6243754;23;20015;-59
2023/09/25 12:10:42;;;;;;;53.65;3.95;;;;;;;;;;6243535;23;20023;-59
2023/09/25 12:13:09;;;;;;;88.20;7.15;;;;;;;;;;6244436;23;20016;-62
2023/09/25 12:15:37;;;;;;;24.30;2.15;;;;;;;;;;6244064;23;20008;-59
2023/09/25 12:18:04;;;;;;;18.98;1.95;;;;;;;;;;6244130;23;20020;-58
2023/09/25 12:20:31;;;;;;;12.30;1.65;;;;;;;;;;6217606;23;20020;-59
2023/09/25 12:22:58;;;;;;;21.98;1.65;;;;;;;;;;6243901;23;20027;-59
2023/09/25 12:25:27;;;;;;;50.13;3.83;;;;;;;;;;6243655;23;20027;-59
2023/09/25 12:27:54;;;;;;;21.80;2.15;;;;;;;;;;6243720;23;20397;-57
2023/09/25 12:30:21;;;;;;;27.08;2.53;;;;;;;;;;6216906;23;20024;-58
2023/09/25 12:32:48;;;;;;;26.83;2.33;;;;;;;;;;6243347;23;20024;-59
2023/09/25 12:35:16;;;;;;;34.17;2.78;;;;;;;;;;6242841;23;20023;-59
2023/09/25 12:37:43;;;;;;;25.55;2.55;;;;;;;;;;6243243;23;20462;-59
2023/09/25 12:40:11;;;;;;;9.95;1.40;;;;;;;;;;6217677;23;20434;-59
2023/09/25 12:42:38;;;;;;;30.73;2.65;;;;;;;;;;6243710;23;20027;-59
2023/09/25 12:45:21;;;;;;;21.98;2.25;;;;;;;;;;6243788;23;20016;-58
2023/09/25 12:47:49;;;;;;;17.02;2.47;;;;;;;;;;6243910;23;20023;-59
2023/09/25 12:50:15;;;;;;;39.60;3.30;;;;;;;;;;6217241;23;20517;-61
2023/09/25 12:52:42;;;;;;;42.10;3.45;;;;;;;;;;6244136;23;20083;-58
2023/09/25 12:55:09;;;;;;;21.58;2.33;;;;;;;;;;6244461;23;20398;-59
2023/09/25 12:57:36;;;;;;;56.83;5.03;;;;;;;;;;6242799;23;20723;-59
2023/09/25 13:00:05;;;;;;;20.05;2.72;;;;;;;;;;6244020;23;20016;-59
2023/09/25 13:02:32;;;;;;;34.20;3.30;;;;;;;;;;6243539;23;20012;-59
2023/09/25 13:04:59;;;;;;;31.00;2.63;;;;;;;;;;6244139;23;20020;-59
2023/09/25 13:07:26;;;;;;;52.65;4.13;;;;;;;;;;6244052;23;20023;-59
2023/09/25 13:09:53;;;;;;;19.08;1.90;;;;;;;;;;6244354;23;20016;-59
2023/09/25 13:12:20;;;;;;;19.70;2.20;;;;;;;;;;6244101;23;20024;-59
2023/09/25 13:14:47;;;;;;;16.88;1.75;;;;;;;;;;6243557;23;20070;-59
2023/09/25 13:17:14;;;;;;;20.02;1.85;;;;;;;;;;6243303;23;20023;-59
2023/09/25 13:19:42;;;;;;;36.75;3.47;;;;;;;;;;6243299;23;20334;-59
2023/09/25 13:22:11;;;;;;;25.83;2.47;;;;;;;;;;6243451;23;20020;-59
2023/09/25 13:24:58;;;;;;;17.08;1.65;;;;;;;;;;6244636;23;20442;-61
2023/09/25 13:27:25;;;;;;;34.42;2.75;;;;;;;;;;6243710;23;20020;-58
2023/09/25 13:29:52;;;;;;;25.13;2.28;;;;;;;;;;6243129;23;20016;-59
2023/09/25 13:32:19;;;;;;;16.40;2.10;;;;;;;;;;6243886;23;20024;-58
2023/09/25 13:34:46;;;;;;;15.00;1.65;;;;;;;;;;6243991;23;20608;-59
2023/09/25 13:37:13;;;;;;;13.48;1.75;;;;;;;;;;6217657;23;20016;-59
2023/09/25 13:39:40;;;;;;;22.50;2.08;;;;;;;;;;6243518;23;20016;-58
2023/09/25 13:42:07;;;;;;;17.58;1.80;;;;;;;;;;6243420;23;20463;-59
2023/09/25 13:44:37;;;;;;;22.15;1.90;;;;;;;;;;6242894;23;20012;-62
2023/09/25 13:47:04;;;;;;;31.70;2.67;;;;;;;;;;6231142;23;20442;-59
2023/09/25 13:49:31;;;;;;;46.13;3.83;;;;;;;;;;6244031;23;20008;-58
2023/09/25 13:51:58;;;;;;;12.30;1.80;;;;;;;;;;6217773;23;20021;-59
2023/09/25 13:54:25;;;;;;;12.88;1.42;;;;;;;;;;6243929;23;20168;-59
2023/09/25 13:56:52;;;;;;;12.80;1.73;;;;;;;;;;6243936;23;20066;-60
2023/09/25 13:59:19;;;;;;;21.58;2.10;;;;;;;;;;6245321;23;20032;-59
2023/09/25 14:01:46;;;;;;;125.63;8.63;;;;;;;;;;6244977;23;20047;-61
2023/09/25 14:04:15;;;;;;;12.13;1.52;;;;;;;;;;6246569;23;20434;-60
2023/09/25 14:06:45;;;;;;;30.73;2.47;;;;;;;;;;6245783;23;20020;-58
2023/09/25 14:09:12;;;;;;;45.13;3.22;;;;;;;;;;6245034;23;20017;-62
2023/09/25 14:11:39;;;;;;;170.13;13.20;;;;;;;;;;6244995;23;20454;-59
2023/09/25 14:14:08;;;;;;;45.20;5.93;;;;;;;;;;6244666;23;20024;-59
2023/09/25 14:16:35;;;;;;;91.55;7.05;;;;;;;;;;6218353;23;20046;-63
2023/09/25 14:19:03;;;;;;;36.92;3.42;;;;;;;;;;6245671;23;20066;-61
2023/09/25 14:21:31;;;;;;;80.93;6.78;;;;;;;;;;6244603;23;20024;-59
2023/09/25 14:23:58;;;;;;;31.65;7.80;;;;;;;;;;6244294;23;20046;-63
2023/09/25 14:26:25;;;;;;;27.92;2.65;;;;;;;;;;6244413;23;20008;-59
2023/09/25 14:28:52;;;;;;;22.80;2.55;;;;;;;;;;6244904;23;20092;-59
2023/09/25 14:31:20;;;;;;;28.77;2.42;;;;;;;;;;6244886;23;20070;-59
2023/09/25 14:33:47;;;;;;;17.88;2.30;;;;;;;;;;6245506;23;20025;-59
2023/09/25 14:36:14;;;;;;;19.08;2.42;;;;;;;;;;6245042;23;20016;-58